createdAt,value
2023-03-15T00:01:16.842Z,101199.50
2023-03-15T00:03:45.923Z,101209.94
2023-03-15T00:06:14.634Z,101208.63
2023-03-15T00:08:47.923Z,101196.59
2023-03-15T00:11:18.331Z,101212.59
2023-03-15T00:13:47.232Z,101217.66
2023-03-15T00:16:17.602Z,101217.66
2023-03-15T00:18:47.070Z,101225.16
2023-03-15T00:21:15.949Z,101230.50
2023-03-15T00:23:44.381Z,101230.88
2023-03-15T00:26:13.009Z,101239.69
2023-03-15T00:28:43.267Z,101234.94
2023-03-15T00:31:17.494Z,101234.22
2023-03-15T00:33:46.678Z,101246.78
2023-03-15T00:36:15.505Z,101242.56
2023-03-15T00:38:45.090Z,101235.50
2023-03-15T00:41:16.934Z,101245.13
2023-03-15T00:43:47.858Z,101250.63
2023-03-15T00:46:17.269Z,101240.97
2023-03-15T00:48:48.226Z,101241.63
2023-03-15T00:51:19.125Z,101239.13
2023-03-15T00:53:48.956Z,101250.44
2023-03-15T00:56:20.933Z,101240.25
2023-03-15T00:58:52.907Z,101246.91
2023-03-15T01:01:25.145Z,101253.75
2023-03-15T01:03:54.261Z,101259.38
2023-03-15T01:06:25.530Z,101254.16
2023-03-15T01:08:55.870Z,101259.19
2023-03-15T01:11:28.146Z,101264.19
2023-03-15T01:14:00.662Z,101269.44
2023-03-15T01:16:29.696Z,101276.13
2023-03-15T01:18:58.029Z,101269.63
2023-03-15T01:21:26.514Z,101276.03
2023-03-15T01:23:55.576Z,101283.16
2023-03-15T01:26:24.555Z,101281.34
2023-03-15T01:28:52.932Z,101283.03
2023-03-15T01:31:25.694Z,101284.66
2023-03-15T01:33:54.050Z,101284.56
2023-03-15T01:36:22.394Z,101282.81
2023-03-15T01:38:51.093Z,101306.00
2023-03-15T01:41:20.304Z,101302.78
2023-03-15T01:43:48.600Z,101313.09
2023-03-15T01:46:30.096Z,101313.06
2023-03-15T01:49:08.560Z,101305.41
2023-03-15T01:51:41.748Z,101315.06
2023-03-15T01:54:17.041Z,101323.38
2023-03-15T01:56:48.058Z,101317.53
2023-03-15T01:59:23.080Z,101329.34
2023-03-15T02:01:54.596Z,101319.09
2023-03-15T02:04:26.770Z,101321.88
2023-03-15T02:07:00.573Z,101324.94
2023-03-15T02:09:37.335Z,101332.25
2023-03-15T02:12:07.010Z,101328.53
2023-03-15T02:14:36.738Z,101327.78
2023-03-15T02:17:06.911Z,101329.78
2023-03-15T02:19:51.095Z,101339.50
2023-03-15T02:22:33.480Z,101345.19
2023-03-15T02:25:11.200Z,101348.50
2023-03-15T02:27:41.545Z,101337.03
2023-03-15T02:30:13.052Z,101345.25
2023-03-15T02:32:41.704Z,101343.31
2023-03-15T02:35:10.677Z,101358.50
2023-03-15T02:37:39.122Z,101362.44
2023-03-15T02:40:21.027Z,101359.06
2023-03-15T02:42:56.373Z,101356.34
2023-03-15T02:45:26.610Z,101361.19
2023-03-15T02:47:55.272Z,101376.56
2023-03-15T02:50:23.482Z,101378.72
2023-03-15T02:52:52.603Z,101383.56
2023-03-15T02:55:21.859Z,101379.09
2023-03-15T02:57:52.280Z,101386.50
2023-03-15T03:00:21.390Z,101388.53
2023-03-15T03:02:50.460Z,101401.72
2023-03-15T03:05:19.948Z,101391.13
2023-03-15T03:07:50.174Z,101408.53
2023-03-15T03:10:20.871Z,101410.91
2023-03-15T03:12:53.373Z,101420.09
2023-03-15T03:15:23.705Z,101426.84
2023-03-15T03:17:52.103Z,101432.97
2023-03-15T03:20:22.546Z,101434.06
2023-03-15T03:22:50.934Z,101431.56
2023-03-15T03:25:19.620Z,101432.50
2023-03-15T03:27:47.872Z,101448.41
2023-03-15T03:30:16.618Z,101445.88
2023-03-15T03:32:46.325Z,101456.41
2023-03-15T03:35:16.122Z,101446.03
2023-03-15T03:37:44.576Z,101449.56
2023-03-15T03:40:15.188Z,101461.13
2023-03-15T03:42:43.527Z,101463.13
2023-03-15T03:45:12.881Z,101471.94
2023-03-15T03:47:41.165Z,101476.53
2023-03-15T03:50:12.909Z,101480.16
2023-03-15T03:52:43.889Z,101484.53
2023-03-15T03:55:13.697Z,101495.16
2023-03-15T03:57:42.489Z,101500.56
2023-03-15T04:00:14.960Z,101499.78
2023-03-15T04:02:43.868Z,101505.09
2023-03-15T04:05:13.919Z,101502.59
2023-03-15T04:07:42.507Z,101509.03
2023-03-15T04:10:14.938Z,101516.78
2023-03-15T04:12:44.257Z,101502.75
2023-03-15T04:15:13.232Z,101523.06
2023-03-15T04:17:41.545Z,101518.66
2023-03-15T04:20:12.965Z,101535.56
2023-03-15T04:22:49.666Z,101527.56
2023-03-15T04:25:18.291Z,101531.22
2023-03-15T04:27:58.631Z,101541.97
2023-03-15T04:30:28.472Z,101543.13
2023-03-15T04:32:59.256Z,101559.44
2023-03-15T04:35:28.349Z,101552.97
2023-03-15T04:37:58.752Z,101553.06
2023-03-15T04:40:28.230Z,101566.25
2023-03-15T04:42:56.898Z,101570.25
2023-03-15T04:45:26.135Z,101581.28
2023-03-15T04:47:55.509Z,101583.00
2023-03-15T04:50:24.959Z,101584.03
2023-03-15T04:52:53.591Z,101584.38
2023-03-15T04:55:23.353Z,101592.97
2023-03-15T04:57:51.717Z,101590.00
2023-03-15T05:00:20.711Z,101594.31
2023-03-15T05:02:54.879Z,101584.69
2023-03-15T05:05:24.498Z,101591.78
2023-03-15T05:07:52.878Z,101608.16
2023-03-15T05:10:22.754Z,101613.84
2023-03-15T05:12:51.180Z,101613.56
2023-03-15T05:15:19.730Z,101611.75
2023-03-15T05:17:48.881Z,101628.38
2023-03-15T05:20:17.932Z,101624.47
2023-03-15T05:22:46.076Z,101629.41
2023-03-15T05:25:16.256Z,101636.28
2023-03-15T05:27:46.840Z,101628.28
2023-03-15T05:30:19.641Z,101636.13
2023-03-15T05:32:48.114Z,101629.94
2023-03-15T05:35:16.720Z,101636.19
2023-03-15T05:37:45.346Z,101639.03
2023-03-15T05:40:15.477Z,101645.16
2023-03-15T05:42:45.553Z,101650.00
2023-03-15T05:45:14.247Z,101655.09
2023-03-15T05:47:42.589Z,101655.16
2023-03-15T05:50:12.265Z,101650.97
2023-03-15T05:52:40.608Z,101653.00
2023-03-15T05:55:10.092Z,101660.06
2023-03-15T05:57:38.387Z,101673.28
2023-03-15T06:00:13.007Z,101676.94
2023-03-15T06:02:41.572Z,101681.34
2023-03-15T06:05:10.894Z,101686.66
2023-03-15T06:07:39.533Z,101687.75
2023-03-15T06:10:09.464Z,101694.66
2023-03-15T06:12:38.185Z,101693.81
2023-03-15T06:15:09.767Z,101700.00
2023-03-15T06:17:38.071Z,101701.03
2023-03-15T06:20:07.905Z,101709.03
2023-03-15T06:22:36.280Z,101708.16
2023-03-15T06:25:05.002Z,101717.00
2023-03-15T06:27:33.437Z,101721.31
2023-03-15T06:30:01.924Z,101725.69
2023-03-15T06:32:34.858Z,101727.50
2023-03-15T06:35:04.990Z,101730.31
2023-03-15T06:37:35.659Z,101740.88
2023-03-15T06:40:07.363Z,101747.13
2023-03-15T06:42:35.791Z,101742.56
2023-03-15T06:45:05.420Z,101748.03
2023-03-15T06:47:35.278Z,101747.00
2023-03-15T06:50:04.504Z,101749.56
2023-03-15T06:52:32.888Z,101752.09
2023-03-15T06:55:01.654Z,101752.06
2023-03-15T06:57:30.159Z,101768.97
2023-03-15T06:59:58.653Z,101759.66
2023-03-15T07:02:26.947Z,101758.38
2023-03-15T07:04:56.948Z,101765.50
2023-03-15T07:07:25.263Z,101777.03
2023-03-15T07:09:55.226Z,101776.66
2023-03-15T07:12:23.807Z,101781.06
2023-03-15T07:14:52.202Z,101785.97
2023-03-15T07:17:20.530Z,101789.78
2023-03-15T07:19:56.212Z,101790.69
2023-03-15T07:22:26.789Z,101791.09
2023-03-15T07:25:08.710Z,101794.38
2023-03-15T07:27:37.123Z,101806.84
2023-03-15T07:30:09.611Z,101802.63
2023-03-15T07:32:39.008Z,101798.31
2023-03-15T07:35:08.197Z,101806.41
2023-03-15T07:37:44.124Z,101815.38
2023-03-15T07:40:16.061Z,101810.06
2023-03-15T07:42:44.575Z,101815.88
2023-03-15T07:45:13.386Z,101814.84
2023-03-15T07:47:42.069Z,101821.69
2023-03-15T07:50:16.445Z,101826.06
2023-03-15T07:52:46.670Z,101822.28
2023-03-15T07:55:15.045Z,101833.81
2023-03-15T07:57:43.272Z,101831.59
2023-03-15T08:00:14.586Z,101837.69
2023-03-15T08:02:42.858Z,101838.75
2023-03-15T08:05:11.620Z,101851.28
2023-03-15T08:07:39.875Z,101845.41
2023-03-15T08:10:11.425Z,101835.97
2023-03-15T08:12:42.926Z,101853.47
2023-03-15T08:15:13.479Z,101844.72
2023-03-15T08:17:43.420Z,101852.78
2023-03-15T08:20:14.982Z,101848.25
2023-03-15T08:22:44.569Z,101851.13
2023-03-15T08:25:17.152Z,101861.22
2023-03-15T08:27:45.864Z,101858.88
2023-03-15T08:30:17.008Z,101864.91
2023-03-15T08:32:47.464Z,101864.53
2023-03-15T08:35:18.383Z,101866.75
2023-03-15T08:37:47.930Z,101874.84
2023-03-15T08:40:24.873Z,101879.09
2023-03-15T08:42:53.964Z,101883.94
2023-03-15T08:45:24.011Z,101885.06
2023-03-15T08:47:55.448Z,101878.19
2023-03-15T08:50:24.378Z,101892.84
2023-03-15T08:52:54.689Z,101878.59
2023-03-15T08:55:24.528Z,101898.09
2023-03-15T08:57:53.006Z,101899.28
2023-03-15T09:00:23.038Z,101889.38
2023-03-15T09:02:53.474Z,101898.06
2023-03-15T09:05:24.137Z,101896.56
2023-03-15T09:07:54.018Z,101889.78
2023-03-15T09:10:24.731Z,101879.06
2023-03-15T09:12:54.225Z,101888.84
2023-03-15T09:15:22.982Z,101877.41
2023-03-15T09:17:52.076Z,101884.97
2023-03-15T09:20:22.926Z,101880.31
2023-03-15T09:22:53.721Z,101884.16
2023-03-15T09:25:25.197Z,101883.25
2023-03-15T09:27:53.841Z,101885.31
2023-03-15T09:30:22.573Z,101888.38
2023-03-15T09:32:51.510Z,101889.63
2023-03-15T09:35:23.510Z,101890.50
2023-03-15T09:37:52.176Z,101889.16
2023-03-15T09:40:25.591Z,101890.63
2023-03-15T09:43:22.532Z,101893.88
2023-03-15T09:46:07.644Z,101888.44
2023-03-15T09:48:42.837Z,101895.13
2023-03-15T09:51:17.960Z,101874.84
2023-03-15T09:53:55.585Z,101886.44
2023-03-15T09:56:31.115Z,101882.66
2023-03-15T09:59:03.080Z,101900.31
2023-03-15T10:01:36.942Z,101903.91
2023-03-15T10:04:14.574Z,101905.69
2023-03-15T10:06:49.237Z,101897.13
2023-03-15T10:09:26.626Z,101900.75
2023-03-15T10:12:05.460Z,101900.31
2023-03-15T10:15:09.959Z,101910.59
2023-03-15T10:17:48.689Z,101908.56
2023-03-15T10:20:22.652Z,101908.03
2023-03-15T10:22:59.248Z,101915.44
2023-03-15T10:25:29.916Z,101911.38
2023-03-15T10:28:05.148Z,101919.03
2023-03-15T10:30:36.554Z,101915.50
2023-03-15T10:33:20.611Z,101914.72
2023-03-15T10:35:49.904Z,101927.34
2023-03-15T10:38:21.527Z,101925.94
2023-03-15T10:40:51.877Z,101928.69
2023-03-15T10:43:25.292Z,101926.88
2023-03-15T10:46:02.589Z,101936.22
2023-03-15T10:48:33.148Z,101931.63
2023-03-15T10:51:06.344Z,101933.69
2023-03-15T10:53:35.292Z,101945.03
2023-03-15T10:56:08.672Z,101951.09
2023-03-15T10:59:01.687Z,101946.25
2023-03-15T11:01:37.673Z,101956.19
2023-03-15T11:04:17.907Z,101960.16
2023-03-15T11:06:50.814Z,101955.63
2023-03-15T11:09:23.497Z,101973.09
2023-03-15T11:12:01.272Z,101974.56
2023-03-15T11:14:38.488Z,101974.44
2023-03-15T11:17:16.101Z,101977.94
2023-03-15T11:19:55.072Z,101976.63
2023-03-15T11:22:24.325Z,101985.41
2023-03-15T11:24:54.550Z,101983.00
2023-03-15T11:27:26.058Z,101982.00
2023-03-15T11:30:00.274Z,101975.25
2023-03-15T11:32:32.988Z,101983.16
2023-03-15T11:35:05.767Z,101980.00
2023-03-15T11:37:40.450Z,101979.72
2023-03-15T11:40:22.141Z,101979.88
2023-03-15T11:42:56.062Z,101979.41
2023-03-15T11:45:36.656Z,101987.31
2023-03-15T11:48:14.226Z,101983.69
2023-03-15T11:50:42.882Z,101980.91
2023-03-15T11:53:15.539Z,101976.22
2023-03-15T11:55:51.437Z,101979.47
2023-03-15T11:58:33.507Z,101972.81
2023-03-15T12:01:08.181Z,101980.97
2023-03-15T12:03:41.544Z,101981.13
2023-03-15T12:06:38.949Z,101987.34
2023-03-15T12:09:49.855Z,101989.63
2023-03-15T12:12:45.852Z,101991.56
2023-03-15T12:15:47.062Z,101986.59
2023-03-15T12:18:41.127Z,101988.94
2023-03-15T12:21:20.630Z,101991.13
2023-03-15T12:24:00.050Z,101980.63
2023-03-15T12:26:39.543Z,101980.19
2023-03-15T12:29:16.081Z,101981.69
2023-03-15T12:32:07.695Z,101974.03
2023-03-15T12:34:49.135Z,101984.78
2023-03-15T12:37:22.604Z,101970.06
2023-03-15T12:39:53.950Z,101977.47
2023-03-15T12:43:03.364Z,101978.44
2023-03-15T12:45:45.518Z,101972.66
2023-03-15T12:48:30.081Z,101980.19
2023-03-15T12:51:34.686Z,101971.47
2023-03-15T12:54:05.781Z,101980.53
2023-03-15T12:56:55.711Z,101983.78
2023-03-15T12:59:33.435Z,101968.50
2023-03-15T13:02:04.871Z,101962.44
2023-03-15T13:04:33.661Z,101970.31
2023-03-15T13:07:24.684Z,101974.34
2023-03-15T13:10:23.752Z,101962.72
2023-03-15T13:12:59.724Z,101958.75
2023-03-15T13:15:35.372Z,101958.59
2023-03-15T13:18:18.946Z,101958.13
2023-03-15T13:21:06.466Z,101960.06
2023-03-15T13:23:36.315Z,101958.13
2023-03-15T13:26:21.656Z,101965.66
2023-03-15T13:28:55.692Z,101956.75
2023-03-15T13:31:28.043Z,101958.31
2023-03-15T13:34:00.310Z,101951.09
2023-03-15T13:36:54.973Z,101963.00
2023-03-15T13:39:30.940Z,101952.72
2023-03-15T13:42:05.900Z,101957.59
2023-03-15T13:44:35.371Z,101961.78
2023-03-15T13:47:03.653Z,101954.91
2023-03-15T13:49:34.755Z,101957.88
2023-03-15T13:52:12.384Z,101963.81
2023-03-15T13:54:44.470Z,101965.59
2023-03-15T13:57:16.517Z,101974.13
2023-03-15T13:59:52.693Z,101964.47
2023-03-15T14:02:26.103Z,101960.41
2023-03-15T14:04:59.652Z,101960.56
2023-03-15T14:07:35.255Z,101959.75
2023-03-15T14:10:29.877Z,101960.94
2023-03-15T14:13:00.832Z,101964.94
2023-03-15T14:15:39.506Z,101970.44
2023-03-15T14:18:20.649Z,101975.28
2023-03-15T14:20:55.623Z,101961.63
2023-03-15T14:23:27.430Z,101962.59
2023-03-15T14:26:04.725Z,101972.25
2023-03-15T14:28:34.168Z,101965.84
2023-03-15T14:31:03.490Z,101976.97
2023-03-15T14:33:37.528Z,101969.41
2023-03-15T14:36:10.098Z,101958.81
2023-03-15T14:38:40.290Z,101966.91
2023-03-15T14:41:26.629Z,101960.41
2023-03-15T14:43:56.434Z,101955.72
2023-03-15T14:46:24.860Z,101965.59
2023-03-15T14:48:53.703Z,101958.44
2023-03-15T14:51:24.592Z,101955.34
2023-03-15T14:53:57.424Z,101953.94
2023-03-15T14:56:27.560Z,101947.44
2023-03-15T14:58:55.812Z,101955.09
2023-03-15T15:01:28.276Z,101953.78
2023-03-15T15:04:00.258Z,101962.19
2023-03-15T15:06:31.897Z,101956.38
2023-03-15T15:09:02.094Z,101954.66
2023-03-15T15:11:31.731Z,101953.59
2023-03-15T15:14:00.074Z,101945.25
2023-03-15T15:16:28.536Z,101943.00
2023-03-15T15:18:56.786Z,101939.47
2023-03-15T15:21:33.532Z,101933.09
2023-03-15T15:24:04.188Z,101937.00
2023-03-15T15:26:34.587Z,101935.09
2023-03-15T15:29:03.142Z,101932.03
2023-03-15T15:31:34.397Z,101925.69
2023-03-15T15:34:03.251Z,101930.22
2023-03-15T15:36:34.889Z,101923.72
2023-03-15T15:39:07.396Z,101926.25
2023-03-15T15:41:37.071Z,101927.53
2023-03-15T15:44:05.507Z,101912.69
2023-03-15T15:46:33.823Z,101911.78
2023-03-15T15:49:02.074Z,101917.03
2023-03-15T15:51:32.738Z,101912.63
2023-03-15T15:54:03.028Z,101902.38
2023-03-15T15:56:34.829Z,101904.56
2023-03-15T15:59:07.868Z,101907.00
2023-03-15T16:01:56.816Z,101918.25
2023-03-15T16:04:28.747Z,101916.66
2023-03-15T16:07:00.310Z,101913.63
2023-03-15T16:09:31.724Z,101919.31
2023-03-15T16:12:00.284Z,101913.84
2023-03-15T16:14:29.993Z,101913.44
2023-03-15T16:16:58.247Z,101914.31
2023-03-15T16:19:26.690Z,101915.78
2023-03-15T16:21:58.225Z,101913.88
2023-03-15T16:24:30.805Z,101924.91
2023-03-15T16:27:03.183Z,101924.75
2023-03-15T16:29:39.194Z,101918.69
2023-03-15T16:32:19.237Z,101920.31
2023-03-15T16:34:54.901Z,101923.09
2023-03-15T16:37:27.438Z,101915.50
2023-03-15T16:39:57.177Z,101919.47
2023-03-15T16:42:26.238Z,101919.44
2023-03-15T16:44:56.163Z,101923.66
2023-03-15T16:47:24.985Z,101924.06
2023-03-15T16:49:53.297Z,101929.09
2023-03-15T16:52:22.316Z,101932.56
2023-03-15T16:54:50.931Z,101926.53
2023-03-15T16:57:23.244Z,101935.94
2023-03-15T16:59:51.969Z,101929.03
2023-03-15T17:02:29.075Z,101934.53
2023-03-15T17:04:57.809Z,101927.44
2023-03-15T17:07:32.889Z,101938.44
2023-03-15T17:10:09.752Z,101934.84
2023-03-15T17:12:39.344Z,101933.34
2023-03-15T17:15:09.693Z,101942.31
2023-03-15T17:17:39.786Z,101936.47
2023-03-15T17:20:17.080Z,101936.06
2023-03-15T17:22:53.097Z,101937.50
2023-03-15T17:25:24.475Z,101934.59
2023-03-15T17:27:53.633Z,101928.81
2023-03-15T17:30:26.372Z,101942.47
2023-03-15T17:32:57.428Z,101930.97
2023-03-15T17:35:30.830Z,101936.91
2023-03-15T17:37:59.853Z,101934.03
2023-03-15T18:00:45.920Z,101953.50
2023-03-15T18:03:31.652Z,101944.72
2023-03-15T18:09:15.517Z,101958.16
2023-03-15T18:11:49.357Z,101958.50
2023-03-15T18:23:34.203Z,101959.97
2023-03-15T18:26:44.713Z,101958.22
2023-03-15T18:37:59.336Z,101969.81
2023-03-15T18:40:52.093Z,101962.66
2023-03-15T18:44:06.736Z,101977.38
2023-03-15T18:46:55.077Z,101973.63
2023-03-15T19:04:08.310Z,101948.78
2023-03-15T19:06:48.882Z,101954.69
2023-03-15T19:18:43.426Z,101950.53
2023-03-15T19:45:36.453Z,101945.84
2023-03-15T19:54:32.259Z,101936.69
2023-03-15T19:57:15.312Z,101945.03
2023-03-15T19:59:50.519Z,101936.66
2023-03-15T20:08:28.887Z,101948.03
2023-03-15T20:11:20.441Z,101939.72
2023-03-15T20:17:04.999Z,101941.88
2023-03-15T20:22:41.481Z,101950.03
2023-03-15T20:37:44.323Z,101943.94
2023-03-15T20:40:45.681Z,101946.66
2023-03-15T20:43:18.810Z,101939.56
2023-03-15T20:53:07.398Z,101938.00
2023-03-15T20:55:51.341Z,101932.59
2023-03-15T21:01:22.904Z,101937.03
2023-03-15T21:03:57.052Z,101933.31
2023-03-15T21:06:32.001Z,101943.41
2023-03-15T21:09:04.362Z,101937.09
2023-03-15T21:11:36.103Z,101937.06
2023-03-15T21:14:06.255Z,101923.13
2023-03-15T21:16:36.138Z,101927.41
2023-03-15T21:19:06.681Z,101924.38
2023-03-15T21:21:37.819Z,101921.22
2023-03-15T21:24:09.417Z,101922.56
2023-03-15T21:26:40.065Z,101918.47
2023-03-15T21:29:12.979Z,101916.13
2023-03-15T21:31:42.635Z,101912.88
2023-03-15T21:34:16.509Z,101909.25
2023-03-15T21:36:47.648Z,101903.25
2023-03-15T21:39:17.845Z,101905.78
2023-03-15T21:41:47.617Z,101907.00
2023-03-15T21:44:23.026Z,101915.13
2023-03-15T21:46:54.622Z,101888.53
2023-03-15T21:49:31.338Z,101889.09
2023-03-15T21:52:02.687Z,101892.81
2023-03-15T21:54:33.259Z,101896.00
2023-03-15T21:57:04.343Z,101897.75
2023-03-15T21:59:33.247Z,101895.69
2023-03-15T22:02:03.115Z,101898.78
2023-03-15T22:04:34.239Z,101893.78
2023-03-15T22:07:09.897Z,101896.25
2023-03-15T22:09:41.947Z,101879.78
2023-03-15T22:12:14.167Z,101886.53
2023-03-15T22:14:51.650Z,101885.34
2023-03-15T22:17:29.076Z,101885.63
2023-03-15T22:22:56.652Z,101873.81
2023-03-15T22:25:26.709Z,101873.56
2023-03-15T22:27:59.057Z,101871.50
2023-03-15T22:30:32.836Z,101870.47
2023-03-15T22:33:02.446Z,101869.56
2023-03-15T22:35:31.330Z,101867.13
2023-03-15T22:38:10.317Z,101861.63
2023-03-15T22:40:43.134Z,101869.31
2023-03-15T22:43:12.942Z,101867.16
2023-03-15T22:45:44.079Z,101860.56
2023-03-15T22:48:13.432Z,101871.56
2023-03-15T22:50:42.080Z,101872.28
2023-03-15T22:53:12.824Z,101872.47
2023-03-15T22:55:45.811Z,101872.16
2023-03-15T22:58:15.613Z,101868.94
2023-03-15T23:00:45.558Z,101866.44
2023-03-15T23:03:14.822Z,101863.56
2023-03-15T23:05:44.417Z,101858.22
2023-03-15T23:08:15.740Z,101856.25
2023-03-15T23:10:45.596Z,101856.66
2023-03-15T23:13:14.674Z,101857.25
2023-03-15T23:15:45.195Z,101863.16
2023-03-15T23:18:17.279Z,101856.66
2023-03-15T23:20:47.014Z,101861.41
2023-03-15T23:23:17.876Z,101848.22
2023-03-15T23:28:40.961Z,101837.75
2023-03-15T23:31:09.379Z,101843.31
2023-03-15T23:33:37.756Z,101847.97
2023-03-15T23:36:08.117Z,101847.66
2023-03-15T23:38:38.102Z,101836.25
2023-03-15T23:41:07.015Z,101852.72
2023-03-15T23:43:35.295Z,101844.91
2023-03-15T23:46:06.211Z,101848.66
2023-03-15T23:48:36.425Z,101848.44
2023-03-15T23:51:05.306Z,101856.25
2023-03-15T23:53:33.993Z,101849.44
2023-03-15T23:56:03.945Z,101849.22
2023-03-15T23:58:32.362Z,101843.44
